Cebu City, Philippines
Current Conditions -  °F | °C
As of 4:00 PM on Saturday 20 Dec 2014 (Local Time) from RPVM Reporting Station
Broken Clouds Broken Clouds  
Wind Chill: 84°   Ceiling: 10000
Heat Index: 92°   Visibility: 6mi
Dew Point: 75°   Wind: 9mph
Humidity: 74%   Direction: 30°NNE
Pressure: 29.77"   Gusts: NA
Location:  10.3°N, 123.9°E
Report Text: RPVM 200800Z 03008KT 9999 FEW020 BKN100 29/24 Q1008 RMK A2977
Loading
Personal Weather Stations






























Interactive Weather Map New forecast layout! Learn more

10-Day Weather Forecast

Advertisements
Track Severe Weather on mobile